Terminal Aerodrome Forecast
Issued by NWS

Home | Current Version | Previous Version | Text Only | Print | Product List | Glossary On
Versions: 1 2 3 4 5 6 7 8 9 10 11 12 13 14 15 16 17 18 19 20 21 22
000
FTUS44 KTSA 241900 AAA
TAFFYV
TAF AMD
KFYV 241904Z 2419/2518 22007KT 4SM RA SCT020 OVC050
      TEMPO 2419/2422 2SM TSRA BR OVC025CB
     FM242200 18010G20KT P6SM -RA SCT025 OVC050
      TEMPO 2422/2502 4SM TSRA BR OVC025CB
     FM250200 17010G18KT 6SM -RA BR SCT007 OVC015
      TEMPO 2502/2506 3SM -RA BR BKN008 OVC030=

USA.gov is the U.S. government's official web portal to all federal, state and local government web resources and services.